Time;durP1;ratioP1;P1;durP2;ratioP2;P2;SDS_P1;SDS_P2;PMS_P1;PMS_P2;Temp;Humidity;BMP_temperature;BMP_pressure;BME280_temperature;BME280_humidity;BME280_pressure;Samples;Min_cycle;Max_cycle;Signal;HPM_P1;HPM_P2
2021/04/06 00:01:44;;;;;;;8.35;1.90;;;;;;;0.45;93.85;99819.16;5201350;28;20100;-77
2021/04/06 00:04:19;;;;;;;13.35;2.03;;;;;;;0.47;92.77;99813.16;5199155;28;20025;-78
2021/04/06 00:06:53;;;;;;;8.32;1.52;;;;;;;0.42;93.53;99814.03;5199617;28;20470;-78
2021/04/06 00:09:25;;;;;;;7.07;1.63;;;;;;;0.43;94.17;99819.19;5200363;28;20041;-78
2021/04/06 00:11:59;;;;;;;6.15;1.67;;;;;;;0.45;94.36;99814.88;5201018;28;20033;-78
2021/04/06 00:14:31;;;;;;;9.65;1.90;;;;;;;0.49;93.88;99816.56;5200717;28;20044;-78
2021/04/06 00:17:04;;;;;;;8.23;1.90;;;;;;;0.49;93.79;99821.69;5200231;28;20028;-78
2021/04/06 00:19:39;;;;;;;9.23;1.88;;;;;;;0.47;93.63;99810.56;5183206;28;20061;-78
2021/04/06 00:22:12;;;;;;;7.68;1.73;;;;;;;0.41;94.28;99812.34;5181900;28;20036;-78
2021/04/06 00:24:46;;;;;;;11.52;1.95;;;;;;;0.45;94.86;99811.44;5200747;28;20498;-78
2021/04/06 00:27:30;;;;;;;6.13;1.50;;;;;;;0.44;94.51;99807.16;5200596;28;20026;-77
2021/04/06 00:30:09;;;;;;;6.53;1.50;;;;;;;0.42;94.47;99804.59;5198799;28;20025;-79
2021/04/06 00:32:42;;;;;;;7.85;1.95;;;;;;;0.43;94.30;99800.31;5197599;28;20026;-77
2021/04/06 00:35:13;;;;;;;6.13;1.65;;;;;;;0.34;95.38;99806.38;5198873;28;20037;-78
2021/04/06 00:37:47;;;;;;;6.78;1.50;;;;;;;0.42;95.83;99804.59;5195629;28;20045;-76
2021/04/06 00:40:19;;;;;;;8.93;1.88;;;;;;;0.42;95.68;99804.59;5198821;28;20034;-77
2021/04/06 00:42:59;;;;;;;6.10;1.55;;;;;;;0.50;95.84;99805.41;5192395;28;20032;-77
2021/04/06 00:45:32;;;;;;;8.00;2.05;;;;;;;0.47;95.59;99797.72;5193992;28;20032;-76
2021/04/06 00:48:09;;;;;;;8.25;2.00;;;;;;;0.58;95.95;99813.91;5195359;28;20034;-77
2021/04/06 00:50:44;;;;;;;9.02;2.55;;;;;;;0.51;96.82;99809.69;5198199;28;20040;-76
2021/04/06 00:53:15;;;;;;;8.27;2.72;;;;;;;0.48;97.91;99804.56;5190432;28;20079;-77
2021/04/06 00:55:50;;;;;;;6.15;2.03;;;;;;;0.61;98.17;99811.31;5201609;28;20395;-76
2021/04/06 00:58:25;;;;;;;7.55;1.92;;;;;;;0.53;98.37;99804.53;5199146;28;20479;-76
2021/04/06 01:01:02;;;;;;;6.82;2.03;;;;;;;0.52;100.00;99801.09;5200001;28;20424;-76
2021/04/06 01:03:33;;;;;;;5.22;2.03;;;;;;;0.62;99.80;99805.31;5204047;28;20057;-76
2021/04/06 01:06:03;;;;;;;8.52;2.08;;;;;;;0.46;100.00;99805.44;5203029;28;20053;-77
2021/04/06 01:08:36;;;;;;;6.60;2.10;;;;;;;0.51;100.00;99801.09;5203676;28;20434;-76
2021/04/06 01:11:07;;;;;;;6.85;2.13;;;;;;;0.47;100.00;99802.88;5204032;28;20503;-76
2021/04/06 01:13:37;;;;;;;8.13;2.38;;;;;;;0.51;100.00;99801.09;5202822;28;20087;-77
2021/04/06 01:16:09;;;;;;;5.70;2.05;;;;;;;0.72;100.00;99804.34;5203495;28;20075;-77
2021/04/06 01:18:39;;;;;;;7.40;2.53;;;;;;;0.62;100.00;99797.59;5202212;28;20038;-76
2021/04/06 01:21:11;;;;;;;5.63;2.22;;;;;;;0.83;100.00;99807.69;5203215;28;20036;-77
2021/04/06 01:23:41;;;;;;;6.97;2.20;;;;;;;0.86;100.00;99807.66;5202947;28;20053;-77
2021/04/06 01:26:12;;;;;;;8.25;2.67;;;;;;;0.95;100.00;99806.72;5202711;28;20055;-77
2021/04/06 01:28:42;;;;;;;9.13;2.40;;;;;;;0.96;100.00;99804.16;5202355;28;20083;-77
2021/04/06 01:31:13;;;;;;;6.93;2.75;;;;;;;1.14;100.00;99803.97;5203314;28;20025;-77
2021/04/06 01:33:43;;;;;;;9.02;2.70;;;;;;;1.11;100.00;99814.28;5203190;28;20022;-77
2021/04/06 01:36:14;;;;;;;8.23;2.38;;;;;;;1.06;100.00;99805.75;5203777;28;20029;-77
2021/04/06 01:38:44;;;;;;;8.63;2.60;;;;;;;1.33;100.00;99809.75;5197477;28;20068;-77
2021/04/06 01:41:17;;;;;;;6.05;2.38;;;;;;;1.03;100.00;99807.50;5199394;28;20029;-77
2021/04/06 01:43:50;;;;;;;7.25;3.05;;;;;;;1.11;100.00;99803.13;5202723;28;20112;-77
2021/04/06 01:46:31;;;;;;;5.38;2.70;;;;;;;1.10;100.00;99807.41;5198711;28;20025;-77
2021/04/06 01:49:01;;;;;;;5.93;2.67;;;;;;;1.36;100.00;99805.41;5196287;28;20092;-77
2021/04/06 01:51:32;;;;;;;7.05;3.10;;;;;;;1.17;100.00;99803.91;5199064;28;20037;-77
2021/04/06 01:54:08;;;;;;;6.18;2.60;;;;;;;1.35;100.00;99808.00;5202815;28;20430;-78
2021/04/06 01:56:49;;;;;;;6.20;2.78;;;;;;;1.33;100.00;99807.16;5202490;28;20029;-78
2021/04/06 01:59:28;;;;;;;4.72;2.72;;;;;;;1.36;100.00;99810.56;5198463;28;20414;-77
2021/04/06 02:02:00;;;;;;;6.13;2.53;;;;;;;1.54;100.00;99810.34;5202332;28;20676;-77
2021/04/06 02:04:32;;;;;;;8.35;3.00;;;;;;;1.45;100.00;99801.88;5202884;28;20053;-77
2021/04/06 02:07:04;;;;;;;7.35;3.03;;;;;;;1.42;100.00;99805.34;5202796;28;20040;-77
2021/04/06 02:09:35;;;;;;;6.78;3.22;;;;;;;1.55;100.00;99806.91;5202670;28;20033;-77
2021/04/06 02:12:06;;;;;;;5.32;2.88;;;;;;;1.39;100.00;99805.38;5202707;28;20029;-77
2021/04/06 02:14:37;;;;;;;5.93;2.92;;;;;;;1.45;100.00;99800.19;5202475;28;20033;-77
2021/04/06 02:17:07;;;;;;;6.63;2.80;;;;;;;1.42;100.00;99802.75;5200652;28;20044;-77
2021/04/06 02:19:42;;;;;;;6.15;3.20;;;;;;;1.37;100.00;99801.97;5189640;28;20033;-77
2021/04/06 02:22:15;;;;;;;;;;;;;;;1.47;100.00;99802.72;5202688;28;20124;-77
2021/04/06 02:24:46;;;;;;;6.60;2.95;;;;;;;1.35;100.00;99811.44;5199239;28;19923;-77
2021/04/06 02:27:27;;;;;;;9.73;3.40;;;;;;;1.40;100.00;99809.66;5197705;28;20025;-77
2021/04/06 02:29:59;;;;;;;4.70;2.80;;;;;;;1.37;100.00;99811.44;5201960;28;20087;-77
2021/04/06 02:32:33;;;;;;;7.25;3.22;;;;;;;1.28;100.00;99817.53;5201925;28;20630;-77
2021/04/06 02:35:12;;;;;;;6.47;3.03;;;;;;;1.31;100.00;99808.91;5201851;28;20029;-77
2021/04/06 02:37:44;;;;;;;7.40;3.17;;;;;;;1.32;100.00;99810.63;5202212;28;20537;-77
2021/04/06 02:40:18;;;;;;;4.80;2.78;;;;;;;1.37;100.00;99822.56;5202053;28;20108;-77
2021/04/06 02:42:50;;;;;;;8.05;2.97;;;;;;;1.22;100.00;99817.56;5202040;28;20109;-77
2021/04/06 02:45:23;;;;;;;4.95;2.95;;;;;;;1.32;100.00;99818.34;5198066;28;20112;-77
2021/04/06 02:48:06;;;;;;;9.00;4.10;;;;;;;1.21;100.00;99812.47;5199316;28;20052;-77
2021/04/06 02:50:39;;;;;;;7.15;4.20;;;;;;;1.12;100.00;99820.25;5194297;28;20119;-77
2021/04/06 02:53:15;;;;;;;6.22;4.03;;;;;;;1.04;100.00;99832.38;5201497;28;20065;-77
2021/04/06 02:55:45;;;;;;;7.25;4.07;;;;;;;0.93;100.00;99827.28;5203628;28;20048;-77
2021/04/06 02:58:16;;;;;;;9.20;4.95;;;;;;;1.05;100.00;99828.91;5201293;28;20029;-77
2021/04/06 03:00:46;;;;;;;7.80;4.85;;;;;;;1.05;100.00;99834.06;5201829;28;20026;-77
2021/04/06 03:03:22;;;;;;;8.93;5.32;;;;;;;0.89;100.00;99838.47;5201564;28;20224;-77
2021/04/06 03:06:04;;;;;;;8.93;5.72;;;;;;;1.00;100.00;99844.38;5201649;28;20037;-77
2021/04/06 03:08:36;;;;;;;9.77;5.63;;;;;;;0.71;100.00;99842.94;5201809;28;20037;-77
2021/04/06 03:11:10;;;;;;;10.00;5.57;;;;;;;0.64;100.00;99847.28;5201400;28;20029;-77
2021/04/06 03:13:43;;;;;;;8.23;5.68;;;;;;;0.64;100.00;99844.72;5201334;28;20025;-77
2021/04/06 03:16:13;;;;;;;9.02;6.10;;;;;;;0.67;100.00;99841.25;5201796;28;20423;-77
2021/04/06 03:18:43;;;;;;;10.90;6.38;;;;;;;0.73;100.00;99836.91;5197897;28;20025;-77
2021/04/06 03:21:14;;;;;;;9.25;6.22;;;;;;;0.55;100.00;99841.34;5200753;28;20029;-77
2021/04/06 03:23:48;;;;;;;9.00;6.07;;;;;;;0.37;100.00;99832.06;5195884;28;20487;-77
2021/04/06 03:26:18;;;;;;;9.35;6.35;;;;;;;0.48;100.00;99832.84;5193810;28;20069;-77
2021/04/06 03:28:48;;;;;;;10.35;6.43;;;;;;;0.59;100.00;99836.16;5195827;28;20052;-77
2021/04/06 03:31:21;;;;;;;10.65;5.55;;;;;;;0.52;100.00;99842.22;5201098;28;20029;-78
2021/04/06 03:33:51;;;;;;;8.07;4.93;;;;;;;0.42;100.00;99843.13;5191711;28;20037;-77
2021/04/06 03:36:23;;;;;;;6.55;4.32;;;;;;;0.52;100.00;99843.97;5193434;28;20022;-77
2021/04/06 03:38:56;;;;;;;7.47;4.32;;;;;;;0.56;100.00;99837.91;5201190;28;20033;-76
2021/04/06 03:41:28;;;;;;;6.85;4.60;;;;;;;0.57;100.00;99837.88;5198695;28;20029;-76
2021/04/06 03:44:10;;;;;;;8.32;4.43;;;;;;;0.32;100.00;99843.22;5200005;28;20114;-77
2021/04/06 03:46:41;;;;;;;8.27;4.32;;;;;;;0.38;100.00;99835.47;5196945;28;20483;-78
2021/04/06 03:49:26;;;;;;;6.15;4.20;;;;;;;0.39;100.00;99843.16;5196024;28;20060;-78
2021/04/06 03:51:58;;;;;;;9.13;4.67;;;;;;;0.44;100.00;99841.44;5198479;28;20022;-78
2021/04/06 03:54:37;;;;;;;6.95;4.28;;;;;;;0.41;100.00;99851.72;5200512;28;20143;-78
2021/04/06 03:57:49;;;;;;;9.00;4.57;;;;;;;0.34;100.00;99854.31;5193820;28;20030;-78
2021/04/06 04:00:20;;;;;;;9.65;5.20;;;;;;;0.19;100.00;99842.44;5198821;28;20063;-78
2021/04/06 04:02:50;;;;;;;6.90;4.70;;;;;;;0.09;100.00;99851.09;5200176;28;20025;-78
2021/04/06 04:05:20;;;;;;;8.00;4.30;;;;;;;0.12;100.00;99848.50;5201151;28;20022;-78
2021/04/06 04:07:51;;;;;;;9.52;4.30;;;;;;;0.07;100.00;99847.66;5201214;28;20053;-78
2021/04/06 04:10:21;;;;;;;8.82;4.45;;;;;;;0.00;100.00;99851.13;5201266;28;20037;-78
2021/04/06 04:12:52;;;;;;;7.03;3.72;;;;;;;0.12;100.00;99847.63;5200895;28;20052;-78
2021/04/06 04:15:22;;;;;;;6.70;3.70;;;;;;;0.20;100.00;99853.59;5200700;28;20088;-78
2021/04/06 04:17:53;;;;;;;6.78;3.42;;;;;;;0.24;100.00;99855.28;5200921;28;20028;-78
2021/04/06 04:20:23;;;;;;;8.85;3.25;;;;;;;0.25;100.00;99857.81;5200116;28;20017;-78
2021/04/06 04:22:54;;;;;;;6.63;3.17;;;;;;;0.03;100.00;99856.22;5201479;28;20029;-78
2021/04/06 04:25:24;;;;;;;5.70;3.10;;;;;;;0.09;100.00;99851.09;5191261;28;20025;-78
2021/04/06 04:27:54;;;;;;;7.18;3.55;;;;;;;-0.01;100.00;99851.97;5204660;28;20064;-78
2021/04/06 04:33:25;;;;;;;8.65;3.42;;;;;;;0.19;100.00;99868.13;5201728;28;20041;-78
2021/04/06 04:35:55;;;;;;;5.85;3.53;;;;;;;0.27;100.00;99866.38;5204161;28;20039;-78
2021/04/06 04:38:25;;;;;;;11.50;3.72;;;;;;;0.16;100.00;99852.75;5204812;28;20018;-78
2021/04/06 04:40:56;;;;;;;5.68;3.30;;;;;;;0.11;100.00;99849.34;5204881;28;20029;-78
2021/04/06 04:43:26;;;;;;;5.35;3.47;;;;;;;0.27;100.00;99850.09;5204431;28;20032;-78
2021/04/06 04:45:59;;;;;;;7.10;3.50;;;;;;;0.27;100.00;99857.81;5204827;28;20594;-78
2021/04/06 04:48:29;;;;;;;5.90;3.70;;;;;;;0.26;100.00;99861.25;5201797;28;20037;-78
2021/04/06 04:51:00;;;;;;;8.75;3.60;;;;;;;0.32;100.00;99856.94;5204685;28;20375;-78
2021/04/06 04:53:30;;;;;;;8.73;3.95;;;;;;;0.36;100.00;99856.03;5200950;28;20076;-78
2021/04/06 04:56:00;;;;;;;8.48;3.90;;;;;;;0.33;100.00;99856.06;5193826;28;20039;-78
2021/04/06 04:58:31;;;;;;;9.93;3.72;;;;;;;0.47;100.00;99851.69;5204173;28;20021;-78
2021/04/06 05:01:01;;;;;;;7.78;4.10;;;;;;;0.57;100.00;99860.19;5204480;28;20029;-78
2021/04/06 05:03:32;;;;;;;8.00;4.20;;;;;;;0.40;100.00;99857.72;5204139;28;20182;-78
2021/04/06 05:06:03;;;;;;;8.95;3.75;;;;;;;0.45;100.00;99855.13;5204018;28;20380;-78
2021/04/06 05:08:33;;;;;;;11.88;3.85;;;;;;;0.59;100.00;99863.59;5203969;28;20028;-78
2021/04/06 05:11:04;;;;;;;7.95;3.50;;;;;;;0.54;100.00;99866.19;5184965;28;20037;-78
2021/04/06 05:13:34;;;;;;;8.00;3.60;;;;;;;0.53;100.00;99868.78;5203430;28;20048;-78
2021/04/06 05:16:05;;;;;;;9.70;3.70;;;;;;;0.54;100.00;99861.06;5204112;28;20056;-78
2021/04/06 05:18:35;;;;;;;6.65;3.15;;;;;;;0.50;100.00;99859.38;5201282;28;20033;-78
2021/04/06 05:21:05;;;;;;;7.35;3.45;;;;;;;0.44;100.00;99859.44;5200374;28;20033;-78
2021/04/06 05:23:36;;;;;;;7.88;3.45;;;;;;;0.72;100.00;99860.91;5203327;28;20026;-78
2021/04/06 05:26:06;;;;;;;6.57;2.88;;;;;;;0.65;100.00;99861.84;5203916;28;20083;-78
2021/04/06 05:28:37;;;;;;;8.05;3.15;;;;;;;0.99;100.00;99860.69;5203875;28;20387;-78
2021/04/06 05:31:07;;;;;;;5.88;2.60;;;;;;;0.78;100.00;99868.59;5202032;28;20033;-78
2021/04/06 05:33:37;;;;;;;7.15;2.70;;;;;;;0.84;100.00;99871.09;5201277;28;20033;-78
2021/04/06 05:36:08;;;;;;;8.48;2.80;;;;;;;0.93;100.00;99862.47;5203415;28;20898;-79
2021/04/06 05:38:38;;;;;;;6.10;2.53;;;;;;;0.87;100.00;99858.22;5203948;28;20095;-79
2021/04/06 05:41:09;;;;;;;4.53;2.10;;;;;;;1.17;100.00;99863.09;5201608;28;20068;-79
2021/04/06 05:43:40;;;;;;;8.63;2.65;;;;;;;1.28;99.73;99860.41;5203083;28;20061;-79
2021/04/06 05:46:12;;;;;;;10.02;2.60;;;;;;;1.32;99.36;99869.78;5203712;28;20083;-79
2021/04/06 05:48:44;;;;;;;8.25;2.55;;;;;;;1.35;99.43;99865.47;5203578;28;20036;-79
2021/04/06 05:51:16;;;;;;;7.28;2.70;;;;;;;1.36;99.94;99869.75;5194824;28;20116;-79
2021/04/06 05:53:47;;;;;;;7.60;2.90;;;;;;;1.25;100.00;99871.56;5198403;28;20824;-79
2021/04/06 05:56:17;;;;;;;11.93;2.35;;;;;;;1.38;100.00;99870.59;5203160;28;20032;-79
2021/04/06 05:58:47;;;;;;;10.52;3.00;;;;;;;1.39;100.00;99876.59;5203774;28;20025;-79
2021/04/06 06:01:18;;;;;;;10.82;2.80;;;;;;;1.34;100.00;99876.66;5203702;28;20558;-79
2021/04/06 06:03:48;;;;;;;7.70;2.83;;;;;;;1.31;100.00;99878.38;5202358;28;20379;-79
2021/04/06 06:06:18;;;;;;;7.95;2.97;;;;;;;1.24;100.00;99874.19;5203612;28;20176;-79
2021/04/06 06:08:52;;;;;;;10.88;2.85;;;;;;;1.19;100.00;99883.63;5202660;28;20025;-79
2021/04/06 06:11:23;;;;;;;9.68;2.80;;;;;;;1.08;100.00;99886.31;5203625;28;20029;-79
2021/04/06 06:13:53;;;;;;;9.77;3.53;;;;;;;0.96;100.00;99886.44;5202543;28;20399;-79
2021/04/06 06:16:28;;;;;;;12.63;3.47;;;;;;;0.99;100.00;99886.41;5203055;28;20494;-79
2021/04/06 06:19:04;;;;;;;11.27;3.55;;;;;;;0.92;100.00;99892.44;5203467;28;20033;-78
2021/04/06 06:21:46;;;;;;;9.85;3.55;;;;;;;0.94;100.00;99887.31;5202778;28;20044;-78
2021/04/06 06:24:29;;;;;;;8.77;2.75;;;;;;;1.12;100.00;99890.59;5200548;28;20045;-78
2021/04/06 06:27:00;;;;;;;6.75;2.95;;;;;;;1.12;100.00;99882.00;5202507;28;20034;-78
2021/04/06 06:29:31;;;;;;;9.82;3.28;;;;;;;1.20;100.00;99886.22;5202805;28;20025;-78
2021/04/06 06:32:01;;;;;;;10.05;3.15;;;;;;;1.27;100.00;99882.69;5202410;28;20104;-78
2021/04/06 06:34:37;;;;;;;9.60;3.35;;;;;;;1.32;100.00;99886.09;5202920;28;20132;-78
2021/04/06 06:37:15;;;;;;;14.55;3.67;;;;;;;1.42;100.00;99877.41;5226751;22;20815;-80
2021/04/06 06:39:54;;;;;;;14.13;3.83;;;;;;;1.54;100.00;99886.75;5205643;28;20029;-80
2021/04/06 06:42:29;;;;;;;9.60;3.47;;;;;;;1.52;100.00;99871.31;5200360;28;20029;-79
2021/04/06 06:45:01;;;;;;;13.23;3.65;;;;;;;1.54;100.00;99887.59;5203694;28;20394;-80
2021/04/06 06:47:31;;;;;;;13.65;3.97;;;;;;;1.88;100.00;99886.34;5204514;28;20022;-80
2021/04/06 06:50:11;;;;;;;11.27;3.97;;;;;;;1.88;100.00;99883.75;5217204;28;20087;-80
2021/04/06 06:52:42;;;;;;;9.43;3.47;;;;;;;1.92;100.00;99885.41;5207812;28;20026;-80
2021/04/06 06:55:21;;;;;;;13.60;4.15;;;;;;;1.84;100.00;99898.38;5216311;28;20060;-80
2021/04/06 06:58:05;;;;;;;13.07;4.40;;;;;;;1.78;100.00;99895.88;5200401;28;20017;-80
2021/04/06 07:00:35;;;;;;;13.45;4.03;;;;;;;1.98;100.00;99895.66;5205519;28;20494;-80
2021/04/06 07:03:15;;;;;;;10.60;4.00;;;;;;;2.18;100.00;99891.09;5203280;28;20048;-80
2021/04/06 07:05:45;;;;;;;15.77;4.30;;;;;;;2.25;100.00;99890.13;5205469;28;20052;-79
2021/04/06 07:08:29;;;;;;;12.38;3.70;;;;;;;2.12;99.78;99883.44;5200144;28;20087;-80
2021/04/06 07:11:01;;;;;;;13.18;3.88;;;;;;;2.23;99.26;99887.59;5201250;28;20121;-80
2021/04/06 07:13:33;;;;;;;10.13;3.88;;;;;;;2.36;99.09;99888.28;5204819;28;20025;-80
2021/04/06 07:16:04;;;;;;;13.35;3.47;;;;;;;2.71;97.86;99888.63;5202463;28;20630;-80
2021/04/06 07:18:35;;;;;;;10.95;3.15;;;;;;;2.90;97.21;99890.03;5205171;28;20041;-80
2021/04/06 07:21:07;;;;;;;12.15;2.38;;;;;;;2.68;96.44;99883.50;5202239;28;20025;-80
2021/04/06 07:23:45;;;;;;;10.15;2.65;;;;;;;2.86;95.99;99883.22;5201556;28;20403;-80
2021/04/06 07:26:18;;;;;;;10.00;2.25;;;;;;;4.15;91.61;99873.91;5201303;28;20031;-80
2021/04/06 07:28:48;;;;;;;8.40;1.65;;;;;;;3.73;90.85;99880.78;5200031;28;20041;-80
2021/04/06 07:31:19;;;;;;;6.10;1.52;;;;;;;3.94;91.76;99875.19;5197993;28;20076;-80
2021/04/06 07:33:49;;;;;;;6.28;1.60;;;;;;;5.31;85.26;99872.81;5203385;28;20100;-80
2021/04/06 07:36:25;;;;;;;10.27;2.40;;;;;;;4.60;86.33;99884.06;5196914;28;21040;-80
2021/04/06 07:38:59;;;;;;;7.07;1.75;;;;;;;3.92;89.24;99884.69;5204495;28;20689;-80
2021/04/06 07:41:33;;;;;;;9.00;2.03;;;;;;;3.86;88.80;99877.09;5203208;28;20465;-79
2021/04/06 07:44:03;;;;;;;7.53;1.95;;;;;;;3.59;89.13;99889.69;5204063;28;20113;-80
2021/04/06 07:46:34;;;;;;;5.35;1.60;;;;;;;3.31;91.83;99891.06;5204817;28;20508;-80
2021/04/06 07:49:08;;;;;;;11.60;3.20;;;;;;;3.33;92.23;99885.88;5216238;28;20033;-80
2021/04/06 07:51:44;;;;;;;9.63;2.47;;;;;;;3.01;93.03;99888.16;5211740;28;20283;-80
2021/04/06 07:54:23;;;;;;;13.45;2.50;;;;;;;3.11;93.36;99894.84;5216429;28;20029;-80
2021/04/06 07:57:01;;;;;;;11.18;3.35;;;;;;;3.23;93.61;99897.22;5208934;28;20682;-80
2021/04/06 07:59:34;;;;;;;14.63;3.95;;;;;;;3.12;93.51;99893.97;5211275;28;20391;-80
2021/04/06 08:02:04;;;;;;;12.90;2.55;;;;;;;3.10;93.02;99896.59;5207818;28;20124;-80
2021/04/06 08:04:37;;;;;;;15.30;3.10;;;;;;;3.60;91.50;99897.38;5210125;28;20167;-80
2021/04/06 08:07:20;;;;;;;16.73;3.75;;;;;;;3.85;88.83;99898.63;5209672;28;20415;-80
2021/04/06 08:09:55;;;;;;;14.07;3.35;;;;;;;3.51;90.45;99895.88;5208919;28;20036;-79
2021/04/06 08:12:29;;;;;;;15.68;2.63;;;;;;;4.39;85.23;99894.03;5209814;28;20429;-79
2021/04/06 08:15:05;;;;;;;12.73;2.15;;;;;;;4.70;84.23;99895.06;5208790;28;20041;-80
2021/04/06 08:17:53;;;;;;;13.75;2.72;;;;;;;4.50;85.54;99892.91;5211780;28;20036;-80
2021/04/06 08:20:36;;;;;;;19.10;5.80;;;;;;;4.06;86.35;99895.63;5222119;28;20020;-80
2021/04/06 08:23:16;;;;;;;23.15;5.93;;;;;;;4.37;87.16;99891.50;5230716;28;20021;-80
2021/04/06 08:25:50;;;;;;;15.65;2.97;;;;;;;3.84;86.90;99889.19;5221347;28;20603;-80
2021/04/06 08:28:25;;;;;;;17.47;3.33;;;;;;;3.91;88.29;99895.06;5208844;28;20026;-80
2021/04/06 08:31:17;;;;;;;20.73;4.20;;;;;;;4.09;88.30;99892.97;5210009;28;20048;-80
2021/04/06 08:33:48;;;;;;;16.27;3.85;;;;;;;4.04;88.13;99892.22;5209330;28;20044;-80
2021/04/06 08:36:28;;;;;;;13.30;2.65;;;;;;;3.67;87.49;99900.72;5207505;28;20022;-79
2021/04/06 08:38:58;;;;;;;20.20;3.60;;;;;;;3.58;87.36;99894.88;5207258;28;20132;-79
2021/04/06 08:41:34;;;;;;;16.23;3.47;;;;;;;4.83;86.94;99893.91;5209068;28;20201;-79
2021/04/06 08:44:07;;;;;;;15.15;3.42;;;;;;;5.10;83.59;99895.81;5208593;28;20419;-80
2021/04/06 08:46:42;;;;;;;15.80;3.00;;;;;;;5.62;80.85;99897.91;5207690;28;20040;-79
2021/04/06 08:49:17;;;;;;;;;;;;;;;5.83;79.95;99886.13;5219148;28;20656;-80
2021/04/06 08:51:59;;;;;;;14.90;2.90;;;;;;;6.13;78.26;99890.47;5217336;28;19917;-80
2021/04/06 08:54:31;;;;;;;10.02;2.92;;;;;;;5.80;80.58;99887.09;5216311;28;20022;-80
2021/04/06 08:57:07;;;;;;;15.80;3.28;;;;;;;5.32;80.90;99890.06;5216903;28;20491;-80
2021/04/06 08:59:39;;;;;;;14.45;2.95;;;;;;;5.78;80.79;99887.97;5224670;28;20025;-80
2021/04/06 09:02:13;;;;;;;14.52;3.25;;;;;;;5.52;79.87;99883.50;5207456;28;20033;-80
2021/04/06 09:04:45;;;;;;;14.50;3.15;;;;;;;5.30;80.89;99886.66;5209558;28;20675;-81
2021/04/06 09:07:26;;;;;;;15.77;3.65;;;;;;;6.54;79.20;99867.59;5208585;28;20033;-80
2021/04/06 09:10:04;;;;;;;14.63;3.63;;;;;;;8.59;73.62;99856.88;5211095;28;20035;-81
2021/04/06 09:12:36;;;;;;;10.13;3.28;;;;;;;8.71;68.71;99853.78;5209181;28;20114;-81
2021/04/06 09:15:10;;;;;;;19.83;3.28;;;;;;;7.93;69.88;99859.38;5211102;28;20021;-81
2021/04/06 09:17:41;;;;;;;11.95;2.90;;;;;;;6.86;74.49;99863.97;5211315;28;20017;-81
2021/04/06 09:20:14;;;;;;;14.88;3.45;;;;;;;8.54;72.07;99859.63;5211858;28;20031;-81
2021/04/06 09:22:47;;;;;;;18.05;3.40;;;;;;;7.68;72.03;99851.59;5208057;28;20025;-80
2021/04/06 09:25:23;;;;;;;11.82;3.35;;;;;;;7.53;75.59;99854.72;5199390;28;20050;-81
2021/04/06 09:28:00;;;;;;;11.02;3.20;;;;;;;7.68;73.37;99849.00;5205270;28;20103;-81
2021/04/06 09:30:35;;;;;;;12.77;2.90;;;;;;;6.95;73.68;99859.31;5208290;28;20032;-80
2021/04/06 09:33:10;;;;;;;18.70;3.38;;;;;;;5.75;75.78;99859.56;5199614;28;20553;-80
2021/04/06 09:35:45;;;;;;;14.25;3.30;;;;;;;5.87;77.14;99854.03;5198675;28;21328;-80
2021/04/06 09:38:21;;;;;;;25.35;6.18;;;;;;;5.89;76.84;99839.31;5221767;28;21601;-83
2021/04/06 09:40:52;;;;;;;11.00;2.58;;;;;;;5.73;75.96;99858.75;5197889;28;20025;-83
2021/04/06 09:43:22;;;;;;;10.63;2.63;;;;;;;5.30;76.51;99852.16;5205260;28;20040;-82
2021/04/06 09:45:53;;;;;;;16.10;3.88;;;;;;;5.54;74.23;99855.78;5211862;28;20028;-82
2021/04/06 09:48:24;;;;;;;21.58;4.63;;;;;;;5.48;74.84;99860.28;5207464;28;20475;-82
2021/04/06 09:51:05;;;;;;;17.05;5.03;;;;;;;6.25;75.26;99854.63;5202720;28;20022;-80
2021/04/06 09:53:36;;;;;;;22.52;6.78;;;;;;;6.52;74.18;99845.16;5203230;28;20045;-80
2021/04/06 09:56:07;;;;;;;15.13;3.80;;;;;;;5.58;74.64;99843.63;5208066;28;20040;-80
2021/04/06 09:58:37;;;;;;;11.38;2.65;;;;;;;5.67;72.22;99848.53;5215480;28;20399;-80
2021/04/06 10:01:26;;;;;;;17.58;3.35;;;;;;;6.20;73.31;99842.69;5207167;28;20104;-81
2021/04/06 10:04:00;;;;;;;17.08;3.35;;;;;;;6.50;71.51;99845.22;5202999;28;20026;-80
2021/04/06 10:06:39;;;;;;;17.10;4.65;;;;;;;6.51;71.23;99846.06;5201703;28;20028;-80
2021/04/06 10:09:21;;;;;;;13.70;3.53;;;;;;;6.35;70.42;99842.22;5207280;28;20075;-81
2021/04/06 10:11:53;;;;;;;16.38;3.92;;;;;;;5.82;68.81;99851.59;5206010;28;20025;-80
2021/04/06 10:14:24;;;;;;;12.13;3.70;;;;;;;5.78;68.83;99846.50;5210629;28;20028;-80
2021/04/06 10:17:12;;;;;;;16.20;2.97;;;;;;;5.52;70.46;99843.75;5208968;28;20017;-81
2021/04/06 10:19:57;;;;;;;18.17;6.93;;;;;;;5.61;69.36;99833.16;5217830;28;20021;-80
2021/04/06 10:22:54;;;;;;;13.20;3.97;;;;;;;5.54;69.74;99834.22;5206444;28;20028;-80
2021/04/06 10:25:27;;;;;;;14.60;4.22;;;;;;;5.98;69.69;99839.03;5218375;28;20024;-80
2021/04/06 10:28:01;;;;;;;16.83;3.58;;;;;;;6.21;70.05;99821.03;5206700;28;20124;-80
2021/04/06 10:30:47;;;;;;;17.02;3.80;;;;;;;6.00;70.62;99826.88;5202201;28;20048;-81
2021/04/06 10:33:20;;;;;;;15.65;3.67;;;;;;;5.99;70.18;99814.78;5210836;28;20025;-81
2021/04/06 10:36:04;;;;;;;14.55;3.17;;;;;;;5.90;70.19;99817.69;5202492;28;20034;-81
2021/04/06 10:38:38;;;;;;;11.45;2.70;;;;;;;6.46;72.01;99807.25;5204388;28;20195;-82
2021/04/06 10:41:14;;;;;;;16.92;2.33;;;;;;;6.28;68.24;99799.22;5218297;28;20048;-81
2021/04/06 10:43:50;;;;;;;9.15;2.05;;;;;;;6.54;69.03;99800.09;5196633;28;20021;-81
2021/04/06 10:46:22;;;;;;;10.80;2.22;;;;;;;6.72;67.94;99783.06;5201404;28;20049;-81
2021/04/06 10:49:02;;;;;;;12.50;2.40;;;;;;;6.50;66.55;99784.66;5235624;28;20031;-81
2021/04/06 10:51:35;;;;;;;9.55;1.92;;;;;;;6.54;67.29;99788.84;5205470;28;20407;-81
2021/04/06 10:54:15;;;;;;;12.68;2.35;;;;;;;6.67;69.42;99779.78;5210860;28;20033;-81
2021/04/06 10:56:54;;;;;;;10.32;2.20;;;;;;;6.45;68.96;99783.97;5208973;28;20060;-81
2021/04/06 10:59:30;;;;;;;13.80;2.42;;;;;;;6.75;66.57;99778.63;5206220;28;20030;-81
2021/04/06 11:02:02;;;;;;;15.77;2.38;;;;;;;6.51;67.79;99782.03;5207094;28;20053;-80
2021/04/06 11:04:41;;;;;;;8.98;2.13;;;;;;;6.50;71.23;99787.25;5206729;28;20025;-82
2021/04/06 11:07:11;;;;;;;11.32;2.10;;;;;;;6.60;74.13;99783.50;5207351;28;20059;-81
2021/04/06 11:09:44;;;;;;;8.10;1.83;;;;;;;6.42;72.51;99784.91;5206879;28;20029;-81
2021/04/06 11:12:16;;;;;;;7.90;1.80;;;;;;;6.45;72.16;99787.41;5205396;28;20083;-81
2021/04/06 11:14:47;;;;;;;8.80;1.83;;;;;;;6.27;72.61;99781.97;5204660;28;20029;-80
2021/04/06 11:17:17;;;;;;;8.10;1.33;;;;;;;5.83;72.17;99767.75;5206466;28;20028;-81
2021/04/06 11:19:48;;;;;;;7.45;1.70;;;;;;;6.05;72.10;99778.34;5220968;28;20039;-81
2021/04/06 11:22:19;;;;;;;8.40;1.90;;;;;;;6.16;72.14;99771.06;5208131;28;20029;-81
2021/04/06 11:24:51;;;;;;;13.13;2.33;;;;;;;6.38;71.98;99764.28;5219512;28;20036;-81
2021/04/06 11:27:22;;;;;;;11.63;2.20;;;;;;;6.35;72.71;99772.19;5208226;28;20513;-81
2021/04/06 11:29:54;;;;;;;10.90;2.20;;;;;;;6.48;72.55;99774.34;5208291;28;20030;-81
2021/04/06 11:32:24;;;;;;;13.75;2.35;;;;;;;6.60;73.21;99770.50;5206987;28;20491;-82
2021/04/06 11:34:55;;;;;;;16.23;3.00;;;;;;;6.64;73.89;99770.38;5205809;28;20095;-81
2021/04/06 11:37:25;;;;;;;10.50;1.98;;;;;;;6.17;74.36;99760.63;5201478;28;20079;-81
2021/04/06 11:39:58;;;;;;;9.70;2.15;;;;;;;6.25;75.66;99770.78;5196572;28;20115;-81
2021/04/06 11:42:28;;;;;;;14.20;2.60;;;;;;;6.56;74.36;99756.78;5211072;28;20025;-81
2021/04/06 11:44:58;;;;;;;8.45;1.88;;;;;;;6.81;70.56;99749.91;5215048;28;20055;-81
2021/04/06 11:47:31;;;;;;;7.05;1.83;;;;;;;6.71;69.92;99756.28;5203634;28;20021;-81
2021/04/06 11:50:06;;;;;;;6.50;1.60;;;;;;;6.73;69.95;99748.44;5209884;28;20059;-81
2021/04/06 11:52:37;;;;;;;8.82;1.98;;;;;;;6.65;71.15;99747.84;5207391;28;20411;-82
2021/04/06 11:55:08;;;;;;;9.32;2.00;;;;;;;6.72;71.16;99745.00;5233297;28;20021;-82
2021/04/06 11:57:38;;;;;;;12.85;2.10;;;;;;;6.45;71.17;99743.28;5209925;28;20425;-81
2021/04/06 12:00:10;;;;;;;7.85;2.00;;;;;;;6.49;69.80;99741.44;5207816;28;20036;-81
2021/04/06 12:02:40;;;;;;;10.63;2.00;;;;;;;6.39;70.03;99743.50;5210675;28;20038;-81
2021/04/06 12:05:11;;;;;;;11.63;2.38;;;;;;;6.47;72.07;99745.84;5212312;28;20033;-81
2021/04/06 12:07:42;;;;;;;9.63;2.40;;;;;;;6.78;70.57;99729.19;5207788;28;20544;-81